sensor_id;sensor_type;location;lat;lon;timestamp;P1;durP1;ratioP1;P2;durP2;ratioP2
83103;SDS011;72975;48.134;11.630;2024-03-02T00:01:05;10.60;;;6.00;;
83103;SDS011;72975;48.134;11.630;2024-03-02T00:03:42;9.43;;;5.88;;
83103;SDS011;72975;48.134;11.630;2024-03-02T00:06:19;8.23;;;4.75;;
83103;SDS011;72975;48.134;11.630;2024-03-02T00:09:01;12.13;;;5.82;;
83103;SDS011;72975;48.134;11.630;2024-03-02T00:11:34;9.77;;;5.63;;
83103;SDS011;72975;48.134;11.630;2024-03-02T00:14:19;11.13;;;6.15;;
83103;SDS011;72975;48.134;11.630;2024-03-02T00:17:15;9.85;;;5.82;;
83103;SDS011;72975;48.134;11.630;2024-03-02T00:19:54;8.65;;;5.25;;
83103;SDS011;72975;48.134;11.630;2024-03-02T00:22:29;10.98;;;6.22;;
83103;SDS011;72975;48.134;11.630;2024-03-02T00:25:01;10.25;;;5.85;;
83103;SDS011;72975;48.134;11.630;2024-03-02T00:27:34;11.38;;;5.78;;
83103;SDS011;72975;48.134;11.630;2024-03-02T00:30:05;10.25;;;6.07;;
83103;SDS011;72975;48.134;11.630;2024-03-02T00:33:04;11.40;;;5.50;;
83103;SDS011;72975;48.134;11.630;2024-03-02T00:35:43;9.93;;;5.95;;
83103;SDS011;72975;48.134;11.630;2024-03-02T00:38:20;12.52;;;6.28;;
83103;SDS011;72975;48.134;11.630;2024-03-02T00:40:54;12.18;;;6.15;;
83103;SDS011;72975;48.134;11.630;2024-03-02T00:46:06;11.38;;;6.32;;
83103;SDS011;72975;48.134;11.630;2024-03-02T00:48:47;11.57;;;6.10;;
83103;SDS011;72975;48.134;11.630;2024-03-02T00:51:38;10.90;;;6.32;;
83103;SDS011;72975;48.134;11.630;2024-03-02T00:54:31;10.13;;;5.85;;
83103;SDS011;72975;48.134;11.630;2024-03-02T00:56:59;11.43;;;5.28;;
83103;SDS011;72975;48.134;11.630;2024-03-02T00:59:35;8.63;;;5.82;;
83103;SDS011;72975;48.134;11.630;2024-03-02T01:02:13;10.90;;;6.03;;
83103;SDS011;72975;48.134;11.630;2024-03-02T01:04:45;8.55;;;5.35;;
83103;SDS011;72975;48.134;11.630;2024-03-02T01:07:16;11.88;;;5.70;;
83103;SDS011;72975;48.134;11.630;2024-03-02T01:09:59;10.55;;;5.65;;
83103;SDS011;72975;48.134;11.630;2024-03-02T01:12:43;8.45;;;4.57;;
83103;SDS011;72975;48.134;11.630;2024-03-02T01:15:31;10.05;;;5.47;;
83103;SDS011;72975;48.134;11.630;2024-03-02T01:18:04;11.70;;;5.32;;
83103;SDS011;72975;48.134;11.630;2024-03-02T01:20:41;9.43;;;5.93;;
83103;SDS011;72975;48.134;11.630;2024-03-02T01:23:33;9.75;;;5.28;;
83103;SDS011;72975;48.134;11.630;2024-03-02T01:26:17;9.02;;;5.35;;
83103;SDS011;72975;48.134;11.630;2024-03-02T01:28:51;10.70;;;5.25;;
83103;SDS011;72975;48.134;11.630;2024-03-02T01:31:20;9.00;;;4.70;;
83103;SDS011;72975;48.134;11.630;2024-03-02T01:33:55;9.02;;;4.80;;
83103;SDS011;72975;48.134;11.630;2024-03-02T01:36:23;8.63;;;5.30;;
83103;SDS011;72975;48.134;11.630;2024-03-02T01:39:25;9.25;;;5.03;;
83103;SDS011;72975;48.134;11.630;2024-03-02T01:42:05;8.32;;;5.50;;
83103;SDS011;72975;48.134;11.630;2024-03-02T01:44:52;9.40;;;5.65;;
83103;SDS011;72975;48.134;11.630;2024-03-02T01:47:21;8.73;;;4.63;;
83103;SDS011;72975;48.134;11.630;2024-03-02T01:49:54;12.73;;;5.50;;
83103;SDS011;72975;48.134;11.630;2024-03-02T01:52:27;9.88;;;5.47;;
83103;SDS011;72975;48.134;11.630;2024-03-02T01:54:57;9.43;;;5.45;;
83103;SDS011;72975;48.134;11.630;2024-03-02T01:57:47;9.77;;;5.20;;
83103;SDS011;72975;48.134;11.630;2024-03-02T02:00:18;8.43;;;4.80;;
83103;SDS011;72975;48.134;11.630;2024-03-02T02:02:53;12.00;;;6.28;;
83103;SDS011;72975;48.134;11.630;2024-03-02T02:05:25;11.00;;;6.32;;
83103;SDS011;72975;48.134;11.630;2024-03-02T02:08:05;9.35;;;5.32;;
83103;SDS011;72975;48.134;11.630;2024-03-02T02:10:33;7.93;;;4.82;;
83103;SDS011;72975;48.134;11.630;2024-03-02T02:13:05;8.45;;;4.25;;
83103;SDS011;72975;48.134;11.630;2024-03-02T02:15:40;9.27;;;4.68;;
83103;SDS011;72975;48.134;11.630;2024-03-02T02:18:11;8.25;;;4.10;;
83103;SDS011;72975;48.134;11.630;2024-03-02T02:20:51;8.98;;;4.85;;
83103;SDS011;72975;48.134;11.630;2024-03-02T02:23:36;11.48;;;5.03;;
83103;SDS011;72975;48.134;11.630;2024-03-02T02:26:08;8.63;;;4.60;;
83103;SDS011;72975;48.134;11.630;2024-03-02T02:28:36;8.00;;;4.32;;
83103;SDS011;72975;48.134;11.630;2024-03-02T02:31:18;9.90;;;5.18;;
83103;SDS011;72975;48.134;11.630;2024-03-02T02:33:46;7.55;;;4.47;;
83103;SDS011;72975;48.134;11.630;2024-03-02T02:36:14;9.05;;;5.00;;
83103;SDS011;72975;48.134;11.630;2024-03-02T02:38:49;7.97;;;4.50;;
83103;SDS011;72975;48.134;11.630;2024-03-02T02:41:34;10.13;;;4.85;;
83103;SDS011;72975;48.134;11.630;2024-03-02T02:44:21;9.93;;;4.40;;
83103;SDS011;72975;48.134;11.630;2024-03-02T02:47:04;8.50;;;4.57;;
83103;SDS011;72975;48.134;11.630;2024-03-02T02:49:41;12.27;;;5.25;;
83103;SDS011;72975;48.134;11.630;2024-03-02T02:52:12;9.32;;;5.03;;
83103;SDS011;72975;48.134;11.630;2024-03-02T02:54:40;9.55;;;5.22;;
83103;SDS011;72975;48.134;11.630;2024-03-02T02:57:08;9.40;;;5.35;;
83103;SDS011;72975;48.134;11.630;2024-03-02T02:59:44;9.52;;;5.22;;
83103;SDS011;72975;48.134;11.630;2024-03-02T03:02:27;9.13;;;5.28;;
83103;SDS011;72975;48.134;11.630;2024-03-02T03:05:01;10.02;;;5.88;;
83103;SDS011;72975;48.134;11.630;2024-03-02T03:07:45;9.82;;;5.45;;
83103;SDS011;72975;48.134;11.630;2024-03-02T03:10:17;10.50;;;5.72;;
83103;SDS011;72975;48.134;11.630;2024-03-02T03:12:59;9.63;;;5.32;;
83103;SDS011;72975;48.134;11.630;2024-03-02T03:15:37;11.70;;;6.20;;
83103;SDS011;72975;48.134;11.630;2024-03-02T03:18:14;10.52;;;6.03;;
83103;SDS011;72975;48.134;11.630;2024-03-02T03:20:52;10.35;;;5.95;;
83103;SDS011;72975;48.134;11.630;2024-03-02T03:23:23;10.88;;;5.53;;
83103;SDS011;72975;48.134;11.630;2024-03-02T03:26:13;11.02;;;5.38;;
83103;SDS011;72975;48.134;11.630;2024-03-02T03:28:43;11.48;;;5.93;;
83103;SDS011;72975;48.134;11.630;2024-03-02T03:31:14;11.27;;;6.15;;
83103;SDS011;72975;48.134;11.630;2024-03-02T03:33:49;9.25;;;5.25;;
83103;SDS011;72975;48.134;11.630;2024-03-02T03:36:22;12.13;;;6.03;;
83103;SDS011;72975;48.134;11.630;2024-03-02T03:38:54;10.82;;;6.20;;
83103;SDS011;72975;48.134;11.630;2024-03-02T03:41:24;10.05;;;5.60;;
83103;SDS011;72975;48.134;11.630;2024-03-02T03:43:52;10.68;;;5.63;;
83103;SDS011;72975;48.134;11.630;2024-03-02T03:46:27;10.02;;;5.82;;
83103;SDS011;72975;48.134;11.630;2024-03-02T03:48:57;10.68;;;6.25;;
83103;SDS011;72975;48.134;11.630;2024-03-02T03:51:30;9.00;;;5.35;;
83103;SDS011;72975;48.134;11.630;2024-03-02T03:54:04;9.80;;;6.05;;
83103;SDS011;72975;48.134;11.630;2024-03-02T03:56:44;10.75;;;6.38;;
83103;SDS011;72975;48.134;11.630;2024-03-02T03:59:25;11.70;;;6.47;;
83103;SDS011;72975;48.134;11.630;2024-03-02T04:01:54;11.27;;;6.78;;
83103;SDS011;72975;48.134;11.630;2024-03-02T04:04:30;10.25;;;6.47;;
83103;SDS011;72975;48.134;11.630;2024-03-02T04:07:01;12.98;;;6.60;;
83103;SDS011;72975;48.134;11.630;2024-03-02T04:09:32;10.88;;;6.35;;
83103;SDS011;72975;48.134;11.630;2024-03-02T04:12:04;12.15;;;6.32;;
83103;SDS011;72975;48.134;11.630;2024-03-02T04:14:38;11.35;;;6.55;;
83103;SDS011;72975;48.134;11.630;2024-03-02T04:17:09;11.45;;;7.10;;
83103;SDS011;72975;48.134;11.630;2024-03-02T04:19:47;11.07;;;6.57;;
83103;SDS011;72975;48.134;11.630;2024-03-02T04:22:30;13.85;;;6.88;;
83103;SDS011;72975;48.134;11.630;2024-03-02T04:27:39;11.88;;;6.80;;
83103;SDS011;72975;48.134;11.630;2024-03-02T04:30:24;11.55;;;6.30;;
83103;SDS011;72975;48.134;11.630;2024-03-02T04:32:55;12.65;;;6.53;;
83103;SDS011;72975;48.134;11.630;2024-03-02T04:35:31;11.93;;;6.53;;
83103;SDS011;72975;48.134;11.630;2024-03-02T04:38:23;13.32;;;7.43;;
83103;SDS011;72975;48.134;11.630;2024-03-02T04:41:17;11.93;;;6.55;;
83103;SDS011;72975;48.134;11.630;2024-03-02T04:43:58;13.18;;;7.53;;
83103;SDS011;72975;48.134;11.630;2024-03-02T04:46:37;13.00;;;6.95;;
83103;SDS011;72975;48.134;11.630;2024-03-02T04:49:13;11.00;;;6.38;;
83103;SDS011;72975;48.134;11.630;2024-03-02T04:51:52;11.82;;;6.68;;
83103;SDS011;72975;48.134;11.630;2024-03-02T04:54:23;15.65;;;7.53;;
83103;SDS011;72975;48.134;11.630;2024-03-02T04:56:57;13.52;;;6.97;;
83103;SDS011;72975;48.134;11.630;2024-03-02T04:59:26;11.77;;;7.07;;
83103;SDS011;72975;48.134;11.630;2024-03-02T05:01:59;12.10;;;7.32;;
83103;SDS011;72975;48.134;11.630;2024-03-02T05:04:29;14.20;;;8.15;;
83103;SDS011;72975;48.134;11.630;2024-03-02T05:07:04;12.98;;;7.18;;
83103;SDS011;72975;48.134;11.630;2024-03-02T05:09:35;13.20;;;7.00;;
83103;SDS011;72975;48.134;11.630;2024-03-02T05:12:14;13.35;;;7.45;;
83103;SDS011;72975;48.134;11.630;2024-03-02T05:15:14;11.45;;;6.15;;
83103;SDS011;72975;48.134;11.630;2024-03-02T05:17:58;13.15;;;7.10;;
83103;SDS011;72975;48.134;11.630;2024-03-02T05:20:45;15.13;;;7.20;;
83103;SDS011;72975;48.134;11.630;2024-03-02T05:23:21;14.02;;;7.40;;
83103;SDS011;72975;48.134;11.630;2024-03-02T05:26:00;14.23;;;7.47;;
83103;SDS011;72975;48.134;11.630;2024-03-02T05:28:32;13.60;;;8.02;;
83103;SDS011;72975;48.134;11.630;2024-03-02T05:31:11;14.00;;;6.95;;
83103;SDS011;72975;48.134;11.630;2024-03-02T05:33:47;15.75;;;7.00;;
83103;SDS011;72975;48.134;11.630;2024-03-02T05:36:23;13.85;;;7.75;;
83103;SDS011;72975;48.134;11.630;2024-03-02T05:38:51;13.07;;;7.40;;
83103;SDS011;72975;48.134;11.630;2024-03-02T05:41:18;15.50;;;7.57;;
83103;SDS011;72975;48.134;11.630;2024-03-02T05:43:46;13.75;;;7.90;;
83103;SDS011;72975;48.134;11.630;2024-03-02T05:46:14;16.25;;;9.00;;
83103;SDS011;72975;48.134;11.630;2024-03-02T05:48:42;15.48;;;7.80;;
83103;SDS011;72975;48.134;11.630;2024-03-02T05:51:10;11.48;;;6.93;;
83103;SDS011;72975;48.134;11.630;2024-03-02T05:53:39;12.88;;;7.47;;
83103;SDS011;72975;48.134;11.630;2024-03-02T05:56:16;14.25;;;7.93;;
83103;SDS011;72975;48.134;11.630;2024-03-02T05:58:43;14.18;;;8.10;;
83103;SDS011;72975;48.134;11.630;2024-03-02T06:01:30;13.02;;;7.47;;
83103;SDS011;72975;48.134;11.630;2024-03-02T06:04:03;16.50;;;8.27;;
83103;SDS011;72975;48.134;11.630;2024-03-02T06:06:31;12.90;;;7.32;;
83103;SDS011;72975;48.134;11.630;2024-03-02T06:09:02;14.80;;;7.57;;
83103;SDS011;72975;48.134;11.630;2024-03-02T06:11:42;17.25;;;8.05;;
83103;SDS011;72975;48.134;11.630;2024-03-02T06:14:15;14.30;;;8.02;;
83103;SDS011;72975;48.134;11.630;2024-03-02T06:16:52;13.35;;;7.05;;
83103;SDS011;72975;48.134;11.630;2024-03-02T06:19:19;12.88;;;7.43;;
83103;SDS011;72975;48.134;11.630;2024-03-02T06:22:00;18.75;;;8.13;;
83103;SDS011;72975;48.134;11.630;2024-03-02T06:24:36;12.95;;;7.45;;
83103;SDS011;72975;48.134;11.630;2024-03-02T06:27:05;14.68;;;7.22;;
83103;SDS011;72975;48.134;11.630;2024-03-02T06:29:45;13.25;;;7.55;;
83103;SDS011;72975;48.134;11.630;2024-03-02T06:32:21;12.57;;;7.05;;
83103;SDS011;72975;48.134;11.630;2024-03-02T06:35:04;13.38;;;7.32;;
83103;SDS011;72975;48.134;11.630;2024-03-02T06:37:37;14.70;;;7.53;;
83103;SDS011;72975;48.134;11.630;2024-03-02T06:40:22;14.05;;;7.30;;
83103;SDS011;72975;48.134;11.630;2024-03-02T06:42:49;12.60;;;6.63;;
83103;SDS011;72975;48.134;11.630;2024-03-02T06:45:30;14.75;;;7.47;;
83103;SDS011;72975;48.134;11.630;2024-03-02T06:48:13;13.27;;;7.07;;
83103;SDS011;72975;48.134;11.630;2024-03-02T06:50:53;15.32;;;7.88;;
83103;SDS011;72975;48.134;11.630;2024-03-02T06:53:28;14.52;;;8.32;;
83103;SDS011;72975;48.134;11.630;2024-03-02T06:56:04;13.43;;;7.35;;
83103;SDS011;72975;48.134;11.630;2024-03-02T06:58:37;13.38;;;7.03;;
83103;SDS011;72975;48.134;11.630;2024-03-02T07:01:11;14.20;;;8.15;;
83103;SDS011;72975;48.134;11.630;2024-03-02T07:03:39;14.90;;;8.38;;
83103;SDS011;72975;48.134;11.630;2024-03-02T07:06:10;16.38;;;8.73;;
83103;SDS011;72975;48.134;11.630;2024-03-02T07:08:41;13.00;;;7.20;;
83103;SDS011;72975;48.134;11.630;2024-03-02T07:11:11;13.02;;;8.05;;
83103;SDS011;72975;48.134;11.630;2024-03-02T07:13:42;13.05;;;7.40;;
83103;SDS011;72975;48.134;11.630;2024-03-02T07:16:10;15.80;;;8.73;;
83103;SDS011;72975;48.134;11.630;2024-03-02T07:19:00;16.25;;;8.70;;
83103;SDS011;72975;48.134;11.630;2024-03-02T07:21:28;16.10;;;8.25;;
83103;SDS011;72975;48.134;11.630;2024-03-02T07:24:02;16.73;;;8.45;;
83103;SDS011;72975;48.134;11.630;2024-03-02T07:26:30;17.67;;;8.95;;
83103;SDS011;72975;48.134;11.630;2024-03-02T07:29:01;17.58;;;8.45;;
83103;SDS011;72975;48.134;11.630;2024-03-02T07:31:29;15.25;;;9.05;;
83103;SDS011;72975;48.134;11.630;2024-03-02T07:33:56;15.98;;;8.63;;
83103;SDS011;72975;48.134;11.630;2024-03-02T07:36:32;18.08;;;9.10;;
83103;SDS011;72975;48.134;11.630;2024-03-02T07:39:12;20.17;;;9.23;;
83103;SDS011;72975;48.134;11.630;2024-03-02T07:41:52;19.35;;;9.27;;
83103;SDS011;72975;48.134;11.630;2024-03-02T07:44:32;19.60;;;9.93;;
83103;SDS011;72975;48.134;11.630;2024-03-02T07:47:08;20.48;;;9.82;;
83103;SDS011;72975;48.134;11.630;2024-03-02T07:49:40;18.50;;;10.05;;
83103;SDS011;72975;48.134;11.630;2024-03-02T07:52:15;18.70;;;9.65;;
83103;SDS011;72975;48.134;11.630;2024-03-02T07:55:00;20.92;;;10.65;;
83103;SDS011;72975;48.134;11.630;2024-03-02T07:57:29;17.70;;;9.23;;
83103;SDS011;72975;48.134;11.630;2024-03-02T07:59:56;15.80;;;8.57;;
83103;SDS011;72975;48.134;11.630;2024-03-02T08:02:37;13.93;;;8.02;;
83103;SDS011;72975;48.134;11.630;2024-03-02T08:05:05;15.98;;;8.85;;
83103;SDS011;72975;48.134;11.630;2024-03-02T08:07:34;15.27;;;7.95;;
83103;SDS011;72975;48.134;11.630;2024-03-02T08:10:02;14.73;;;7.90;;
83103;SDS011;72975;48.134;11.630;2024-03-02T08:12:31;13.25;;;7.60;;
83103;SDS011;72975;48.134;11.630;2024-03-02T08:14:59;13.50;;;7.90;;
83103;SDS011;72975;48.134;11.630;2024-03-02T08:17:29;13.07;;;7.28;;
83103;SDS011;72975;48.134;11.630;2024-03-02T08:20:03;15.40;;;8.00;;
83103;SDS011;72975;48.134;11.630;2024-03-02T08:22:32;13.10;;;7.35;;
83103;SDS011;72975;48.134;11.630;2024-03-02T08:25:05;12.68;;;7.13;;
83103;SDS011;72975;48.134;11.630;2024-03-02T08:27:37;18.25;;;8.45;;
83103;SDS011;72975;48.134;11.630;2024-03-02T08:30:07;12.45;;;7.93;;
83103;SDS011;72975;48.134;11.630;2024-03-02T08:32:38;14.70;;;7.90;;
83103;SDS011;72975;48.134;11.630;2024-03-02T08:35:08;19.50;;;9.27;;
83103;SDS011;72975;48.134;11.630;2024-03-02T08:37:37;17.30;;;7.25;;
83103;SDS011;72975;48.134;11.630;2024-03-02T08:40:07;15.77;;;7.95;;
83103;SDS011;72975;48.134;11.630;2024-03-02T08:42:37;16.73;;;7.90;;
83103;SDS011;72975;48.134;11.630;2024-03-02T08:45:06;16.65;;;9.27;;
83103;SDS011;72975;48.134;11.630;2024-03-02T08:47:36;13.27;;;7.75;;
83103;SDS011;72975;48.134;11.630;2024-03-02T08:50:06;11.25;;;6.57;;
83103;SDS011;72975;48.134;11.630;2024-03-02T08:52:46;16.95;;;7.85;;
83103;SDS011;72975;48.134;11.630;2024-03-02T08:55:23;15.68;;;8.13;;
83103;SDS011;72975;48.134;11.630;2024-03-02T08:57:55;13.55;;;7.65;;
83103;SDS011;72975;48.134;11.630;2024-03-02T09:00:30;21.15;;;9.18;;
83103;SDS011;72975;48.134;11.630;2024-03-02T09:02:59;15.05;;;8.60;;
83103;SDS011;72975;48.134;11.630;2024-03-02T09:05:30;11.70;;;7.45;;
83103;SDS011;72975;48.134;11.630;2024-03-02T09:07:58;12.45;;;7.65;;
83103;SDS011;72975;48.134;11.630;2024-03-02T09:10:26;12.93;;;7.95;;
83103;SDS011;72975;48.134;11.630;2024-03-02T09:12:54;12.75;;;7.10;;
83103;SDS011;72975;48.134;11.630;2024-03-02T09:15:26;13.57;;;8.02;;
83103;SDS011;72975;48.134;11.630;2024-03-02T09:17:55;15.05;;;7.93;;
83103;SDS011;72975;48.134;11.630;2024-03-02T09:20:23;10.20;;;6.15;;
83103;SDS011;72975;48.134;11.630;2024-03-02T09:22:51;9.05;;;5.65;;
83103;SDS011;72975;48.134;11.630;2024-03-02T09:25:21;9.18;;;5.65;;
83103;SDS011;72975;48.134;11.630;2024-03-02T09:27:49;10.05;;;5.85;;
83103;SDS011;72975;48.134;11.630;2024-03-02T09:30:17;11.85;;;6.43;;
83103;SDS011;72975;48.134;11.630;2024-03-02T09:32:48;9.55;;;5.47;;
83103;SDS011;72975;48.134;11.630;2024-03-02T09:35:19;11.05;;;6.30;;
83103;SDS011;72975;48.134;11.630;2024-03-02T09:37:47;15.98;;;8.93;;
83103;SDS011;72975;48.134;11.630;2024-03-02T09:40:16;10.32;;;7.00;;
83103;SDS011;72975;48.134;11.630;2024-03-02T09:42:44;10.65;;;6.32;;
83103;SDS011;72975;48.134;11.630;2024-03-02T09:45:29;15.27;;;6.75;;
83103;SDS011;72975;48.134;11.630;2024-03-02T09:48:01;12.25;;;6.80;;
83103;SDS011;72975;48.134;11.630;2024-03-02T09:50:34;15.95;;;7.13;;
83103;SDS011;72975;48.134;11.630;2024-03-02T09:53:02;11.85;;;7.35;;
83103;SDS011;72975;48.134;11.630;2024-03-02T09:55:34;11.73;;;7.50;;
83103;SDS011;72975;48.134;11.630;2024-03-02T09:58:01;12.77;;;7.20;;
83103;SDS011;72975;48.134;11.630;2024-03-02T10:00:29;11.63;;;6.45;;
83103;SDS011;72975;48.134;11.630;2024-03-02T10:02:56;10.95;;;6.47;;
83103;SDS011;72975;48.134;11.630;2024-03-02T10:05:25;11.85;;;7.15;;
83103;SDS011;72975;48.134;11.630;2024-03-02T10:07:58;15.00;;;7.82;;
83103;SDS011;72975;48.134;11.630;2024-03-02T10:10:40;13.77;;;7.18;;
83103;SDS011;72975;48.134;11.630;2024-03-02T10:13:11;14.20;;;7.20;;
83103;SDS011;72975;48.134;11.630;2024-03-02T10:15:39;11.55;;;7.50;;
83103;SDS011;72975;48.134;11.630;2024-03-02T10:18:08;11.73;;;6.30;;
83103;SDS011;72975;48.134;11.630;2024-03-02T10:20:40;13.25;;;7.00;;
83103;SDS011;72975;48.134;11.630;2024-03-02T10:23:11;12.63;;;6.38;;
83103;SDS011;72975;48.134;11.630;2024-03-02T10:25:40;12.20;;;6.65;;
83103;SDS011;72975;48.134;11.630;2024-03-02T10:28:20;11.05;;;5.32;;
83103;SDS011;72975;48.134;11.630;2024-03-02T10:30:47;15.40;;;7.60;;
83103;SDS011;72975;48.134;11.630;2024-03-02T10:33:17;12.68;;;6.22;;
83103;SDS011;72975;48.134;11.630;2024-03-02T10:35:45;11.60;;;6.63;;
83103;SDS011;72975;48.134;11.630;2024-03-02T10:38:18;13.50;;;6.25;;
83103;SDS011;72975;48.134;11.630;2024-03-02T10:40:48;12.27;;;7.88;;
83103;SDS011;72975;48.134;11.630;2024-03-02T10:43:16;14.68;;;7.43;;
83103;SDS011;72975;48.134;11.630;2024-03-02T10:45:45;17.50;;;8.70;;
83103;SDS011;72975;48.134;11.630;2024-03-02T10:48:17;16.88;;;8.80;;
83103;SDS011;72975;48.134;11.630;2024-03-02T10:50:44;15.05;;;8.85;;
83103;SDS011;72975;48.134;11.630;2024-03-02T10:53:12;14.50;;;8.18;;
83103;SDS011;72975;48.134;11.630;2024-03-02T10:55:39;13.68;;;8.00;;
83103;SDS011;72975;48.134;11.630;2024-03-02T10:58:09;14.18;;;7.57;;
83103;SDS011;72975;48.134;11.630;2024-03-02T11:00:55;13.50;;;8.32;;
83103;SDS011;72975;48.134;11.630;2024-03-02T11:03:30;14.98;;;8.45;;
83103;SDS011;72975;48.134;11.630;2024-03-02T11:06:19;14.30;;;8.32;;
83103;SDS011;72975;48.134;11.630;2024-03-02T11:09:09;15.55;;;7.88;;
83103;SDS011;72975;48.134;11.630;2024-03-02T11:12:05;12.48;;;8.05;;
83103;SDS011;72975;48.134;11.630;2024-03-02T11:15:11;19.80;;;9.93;;
83103;SDS011;72975;48.134;11.630;2024-03-02T11:17:49;12.70;;;6.90;;
83103;SDS011;72975;48.134;11.630;2024-03-02T11:20:54;13.18;;;8.02;;
83103;SDS011;72975;48.134;11.630;2024-03-02T11:30:53;11.23;;;6.82;;
83103;SDS011;72975;48.134;11.630;2024-03-02T11:33:24;13.27;;;7.30;;
83103;SDS011;72975;48.134;11.630;2024-03-02T11:35:53;10.73;;;7.03;;
83103;SDS011;72975;48.134;11.630;2024-03-02T11:38:23;12.10;;;6.78;;
83103;SDS011;72975;48.134;11.630;2024-03-02T11:40:59;12.80;;;6.30;;
83103;SDS011;72975;48.134;11.630;2024-03-02T13:58:22;10.65;;;6.03;;
83103;SDS011;72975;48.134;11.630;2024-03-02T14:02:13;14.18;;;6.85;;
83103;SDS011;72975;48.134;11.630;2024-03-02T14:05:33;12.50;;;6.18;;
83103;SDS011;72975;48.134;11.630;2024-03-02T14:08:26;13.40;;;7.28;;
83103;SDS011;72975;48.134;11.630;2024-03-02T14:11:04;14.13;;;7.00;;
83103;SDS011;72975;48.134;11.630;2024-03-02T14:13:31;12.38;;;6.72;;
83103;SDS011;72975;48.134;11.630;2024-03-02T14:15:59;17.15;;;7.70;;
83103;SDS011;72975;48.134;11.630;2024-03-02T14:18:26;16.60;;;8.57;;
83103;SDS011;72975;48.134;11.630;2024-03-02T14:20:54;16.52;;;8.52;;
83103;SDS011;72975;48.134;11.630;2024-03-02T14:23:22;15.35;;;8.40;;
83103;SDS011;72975;48.134;11.630;2024-03-02T14:25:49;14.30;;;7.85;;
83103;SDS011;72975;48.134;11.630;2024-03-02T14:28:17;14.77;;;7.60;;
83103;SDS011;72975;48.134;11.630;2024-03-02T14:31:05;16.08;;;7.90;;
83103;SDS011;72975;48.134;11.630;2024-03-02T14:33:33;15.85;;;7.35;;
83103;SDS011;72975;48.134;11.630;2024-03-02T14:36:00;15.38;;;7.40;;
83103;SDS011;72975;48.134;11.630;2024-03-02T14:38:28;14.63;;;6.90;;
83103;SDS011;72975;48.134;11.630;2024-03-02T14:40:55;12.98;;;6.28;;
83103;SDS011;72975;48.134;11.630;2024-03-02T14:43:23;13.30;;;6.72;;
83103;SDS011;72975;48.134;11.630;2024-03-02T14:45:50;12.93;;;6.88;;
83103;SDS011;72975;48.134;11.630;2024-03-02T14:48:17;12.90;;;5.93;;
83103;SDS011;72975;48.134;11.630;2024-03-02T14:50:45;13.75;;;7.30;;
83103;SDS011;72975;48.134;11.630;2024-03-02T14:53:12;14.23;;;6.63;;
83103;SDS011;72975;48.134;11.630;2024-03-02T14:55:39;16.23;;;7.60;;
83103;SDS011;72975;48.134;11.630;2024-03-02T14:58:07;15.00;;;6.43;;
83103;SDS011;72975;48.134;11.630;2024-03-02T15:00:34;11.63;;;6.05;;
83103;SDS011;72975;48.134;11.630;2024-03-02T15:03:02;13.95;;;6.30;;
83103;SDS011;72975;48.134;11.630;2024-03-02T15:05:32;11.52;;;6.65;;
83103;SDS011;72975;48.134;11.630;2024-03-02T15:07:59;13.25;;;6.93;;
83103;SDS011;72975;48.134;11.630;2024-03-02T15:10:29;15.95;;;7.32;;
83103;SDS011;72975;48.134;11.630;2024-03-02T15:12:57;13.18;;;7.15;;
83103;SDS011;72975;48.134;11.630;2024-03-02T15:15:24;15.13;;;8.73;;
83103;SDS011;72975;48.134;11.630;2024-03-02T15:17:52;13.73;;;6.82;;
83103;SDS011;72975;48.134;11.630;2024-03-02T15:20:20;11.50;;;6.85;;
83103;SDS011;72975;48.134;11.630;2024-03-02T15:22:48;12.75;;;7.30;;
83103;SDS011;72975;48.134;11.630;2024-03-02T15:25:15;14.52;;;7.10;;
83103;SDS011;72975;48.134;11.630;2024-03-02T15:27:42;14.40;;;7.95;;
83103;SDS011;72975;48.134;11.630;2024-03-02T15:30:10;13.25;;;7.25;;
83103;SDS011;72975;48.134;11.630;2024-03-02T15:32:38;13.35;;;6.95;;
83103;SDS011;72975;48.134;11.630;2024-03-02T15:35:05;10.68;;;6.25;;
83103;SDS011;72975;48.134;11.630;2024-03-02T15:37:33;12.02;;;6.78;;
83103;SDS011;72975;48.134;11.630;2024-03-02T15:40:01;11.38;;;6.35;;
83103;SDS011;72975;48.134;11.630;2024-03-02T17:43:50;16.50;;;7.90;;
83103;SDS011;72975;48.134;11.630;2024-03-02T17:50:52;20.20;;;9.23;;
83103;SDS011;72975;48.134;11.630;2024-03-02T18:10:44;21.17;;;9.38;;
83103;SDS011;72975;48.134;11.630;2024-03-02T18:14:10;25.88;;;10.90;;
83103;SDS011;72975;48.134;11.630;2024-03-02T18:17:20;19.45;;;9.05;;
83103;SDS011;72975;48.134;11.630;2024-03-02T18:20:39;20.58;;;10.43;;
83103;SDS011;72975;48.134;11.630;2024-03-02T18:24:02;20.70;;;9.10;;
83103;SDS011;72975;48.134;11.630;2024-03-02T18:27:39;21.27;;;10.15;;
83103;SDS011;72975;48.134;11.630;2024-03-02T18:31:53;17.67;;;9.15;;
83103;SDS011;72975;48.134;11.630;2024-03-02T18:35:20;22.48;;;11.48;;
83103;SDS011;72975;48.134;11.630;2024-03-02T18:38:54;20.67;;;10.48;;
83103;SDS011;72975;48.134;11.630;2024-03-02T18:41:35;21.15;;;10.20;;
83103;SDS011;72975;48.134;11.630;2024-03-02T18:44:19;20.30;;;9.95;;
83103;SDS011;72975;48.134;11.630;2024-03-02T18:47:27;23.00;;;10.05;;
83103;SDS011;72975;48.134;11.630;2024-03-02T18:51:14;27.70;;;11.40;;
83103;SDS011;72975;48.134;11.630;2024-03-02T18:54:46;23.67;;;11.05;;
83103;SDS011;72975;48.134;11.630;2024-03-02T18:58:03;25.23;;;11.75;;
83103;SDS011;72975;48.134;11.630;2024-03-02T19:01:44;26.20;;;12.00;;
83103;SDS011;72975;48.134;11.630;2024-03-02T19:04:54;25.63;;;11.43;;
83103;SDS011;72975;48.134;11.630;2024-03-02T19:08:00;29.85;;;11.35;;
83103;SDS011;72975;48.134;11.630;2024-03-02T19:11:45;29.00;;;11.15;;
83103;SDS011;72975;48.134;11.630;2024-03-02T19:14:45;26.88;;;12.15;;
83103;SDS011;72975;48.134;11.630;2024-03-02T19:17:47;26.23;;;12.38;;
83103;SDS011;72975;48.134;11.630;2024-03-02T19:23:39;23.98;;;10.52;;
83103;SDS011;72975;48.134;11.630;2024-03-02T19:29:46;26.63;;;11.23;;
83103;SDS011;72975;48.134;11.630;2024-03-02T19:36:10;27.13;;;11.80;;
83103;SDS011;72975;48.134;11.630;2024-03-02T19:38:49;26.25;;;11.88;;
83103;SDS011;72975;48.134;11.630;2024-03-02T19:41:56;24.73;;;11.75;;
83103;SDS011;72975;48.134;11.630;2024-03-02T19:44:36;25.00;;;11.27;;
83103;SDS011;72975;48.134;11.630;2024-03-02T19:47:14;26.85;;;11.30;;
83103;SDS011;72975;48.134;11.630;2024-03-02T19:50:11;23.65;;;10.77;;
83103;SDS011;72975;48.134;11.630;2024-03-02T19:53:17;28.80;;;12.00;;
83103;SDS011;72975;48.134;11.630;2024-03-02T19:55:46;25.55;;;13.70;;
83103;SDS011;72975;48.134;11.630;2024-03-02T19:59:06;27.85;;;13.45;;
83103;SDS011;72975;48.134;11.630;2024-03-02T20:01:51;27.80;;;12.63;;
83103;SDS011;72975;48.134;11.630;2024-03-02T20:04:46;27.45;;;12.93;;
83103;SDS011;72975;48.134;11.630;2024-03-02T20:07:19;27.58;;;13.13;;
83103;SDS011;72975;48.134;11.630;2024-03-02T20:09:53;25.95;;;13.18;;
83103;SDS011;72975;48.134;11.630;2024-03-02T20:12:37;29.02;;;12.68;;
83103;SDS011;72975;48.134;11.630;2024-03-02T20:15:16;31.02;;;13.02;;
83103;SDS011;72975;48.134;11.630;2024-03-02T20:18:06;31.90;;;14.60;;
83103;SDS011;72975;48.134;11.630;2024-03-02T20:20:41;28.48;;;12.82;;
83103;SDS011;72975;48.134;11.630;2024-03-02T20:23:44;28.15;;;13.00;;